sensor_id;sensor_type;location;lat;lon;timestamp;P1;durP1;ratioP1;P2;durP2;ratioP2
39740;SDS011;25426;53.478;10.190;2023-02-28T00:01:36;8.18;;;6.88;;
39740;SDS011;25426;53.478;10.190;2023-02-28T00:04:07;9.52;;;7.88;;
39740;SDS011;25426;53.478;10.190;2023-02-28T00:06:39;10.67;;;7.87;;
39740;SDS011;25426;53.478;10.190;2023-02-28T00:09:10;13.67;;;8.00;;
39740;SDS011;25426;53.478;10.190;2023-02-28T00:11:41;9.47;;;7.57;;
39740;SDS011;25426;53.478;10.190;2023-02-28T00:14:12;10.77;;;8.23;;
39740;SDS011;25426;53.478;10.190;2023-02-28T00:16:43;12.17;;;8.07;;
39740;SDS011;25426;53.478;10.190;2023-02-28T00:19:13;12.30;;;7.93;;
39740;SDS011;25426;53.478;10.190;2023-02-28T00:21:44;12.03;;;7.90;;
39740;SDS011;25426;53.478;10.190;2023-02-28T00:24:15;9.57;;;6.70;;
39740;SDS011;25426;53.478;10.190;2023-02-28T00:26:46;13.90;;;7.93;;
39740;SDS011;25426;53.478;10.190;2023-02-28T00:29:17;11.10;;;7.53;;
39740;SDS011;25426;53.478;10.190;2023-02-28T00:31:48;9.63;;;7.60;;
39740;SDS011;25426;53.478;10.190;2023-02-28T00:34:19;12.20;;;8.17;;
39740;SDS011;25426;53.478;10.190;2023-02-28T00:36:50;11.23;;;7.97;;
39740;SDS011;25426;53.478;10.190;2023-02-28T00:39:21;11.40;;;8.17;;
39740;SDS011;25426;53.478;10.190;2023-02-28T00:41:52;11.63;;;8.17;;
39740;SDS011;25426;53.478;10.190;2023-02-28T00:44:23;12.80;;;8.70;;
39740;SDS011;25426;53.478;10.190;2023-02-28T00:46:54;10.70;;;7.10;;
39740;SDS011;25426;53.478;10.190;2023-02-28T00:49:28;11.57;;;7.60;;
39740;SDS011;25426;53.478;10.190;2023-02-28T00:51:59;9.30;;;6.97;;
39740;SDS011;25426;53.478;10.190;2023-02-28T00:54:30;10.50;;;7.20;;
39740;SDS011;25426;53.478;10.190;2023-02-28T00:57:01;11.43;;;7.60;;
39740;SDS011;25426;53.478;10.190;2023-02-28T00:59:32;9.73;;;7.83;;
39740;SDS011;25426;53.478;10.190;2023-02-28T01:02:03;14.20;;;8.13;;
39740;SDS011;25426;53.478;10.190;2023-02-28T01:04:34;9.73;;;7.63;;
39740;SDS011;25426;53.478;10.190;2023-02-28T01:07:05;13.70;;;8.07;;
39740;SDS011;25426;53.478;10.190;2023-02-28T01:09:36;9.23;;;7.07;;
39740;SDS011;25426;53.478;10.190;2023-02-28T01:12:08;10.77;;;7.70;;
39740;SDS011;25426;53.478;10.190;2023-02-28T01:14:39;14.97;;;8.53;;
39740;SDS011;25426;53.478;10.190;2023-02-28T01:17:10;10.33;;;7.70;;
39740;SDS011;25426;53.478;10.190;2023-02-28T01:19:41;10.43;;;7.57;;
39740;SDS011;25426;53.478;10.190;2023-02-28T01:22:13;14.27;;;8.10;;
39740;SDS011;25426;53.478;10.190;2023-02-28T01:24:46;11.00;;;8.23;;
39740;SDS011;25426;53.478;10.190;2023-02-28T01:27:17;11.37;;;7.73;;
39740;SDS011;25426;53.478;10.190;2023-02-28T01:29:50;11.23;;;7.43;;
39740;SDS011;25426;53.478;10.190;2023-02-28T01:32:21;13.17;;;7.43;;
39740;SDS011;25426;53.478;10.190;2023-02-28T01:34:53;12.60;;;8.00;;
39740;SDS011;25426;53.478;10.190;2023-02-28T01:37:27;11.00;;;7.73;;
39740;SDS011;25426;53.478;10.190;2023-02-28T01:39:58;9.10;;;7.77;;
39740;SDS011;25426;53.478;10.190;2023-02-28T01:42:29;10.50;;;7.93;;
39740;SDS011;25426;53.478;10.190;2023-02-28T01:45:08;14.50;;;7.67;;
39740;SDS011;25426;53.478;10.190;2023-02-28T01:48:05;9.50;;;7.70;;
39740;SDS011;25426;53.478;10.190;2023-02-28T01:50:39;10.03;;;7.27;;
39740;SDS011;25426;53.478;10.190;2023-02-28T01:53:16;10.50;;;6.40;;
39740;SDS011;25426;53.478;10.190;2023-02-28T01:55:54;10.03;;;6.63;;
39740;SDS011;25426;53.478;10.190;2023-02-28T01:58:25;12.73;;;7.80;;
39740;SDS011;25426;53.478;10.190;2023-02-28T02:00:56;9.57;;;7.50;;
39740;SDS011;25426;53.478;10.190;2023-02-28T02:03:27;9.43;;;7.13;;
39740;SDS011;25426;53.478;10.190;2023-02-28T02:05:59;15.23;;;7.93;;
39740;SDS011;25426;53.478;10.190;2023-02-28T02:08:30;9.23;;;6.80;;
39740;SDS011;25426;53.478;10.190;2023-02-28T02:11:01;14.97;;;7.10;;
39740;SDS011;25426;53.478;10.190;2023-02-28T02:17:16;11.23;;;7.07;;
39740;SDS011;25426;53.478;10.190;2023-02-28T02:27:16;13.90;;;6.50;;
39740;SDS011;25426;53.478;10.190;2023-02-28T02:34:01;9.90;;;7.20;;
39740;SDS011;25426;53.478;10.190;2023-02-28T02:37:14;17.00;;;7.30;;
39740;SDS011;25426;53.478;10.190;2023-02-28T02:45:59;7.83;;;6.00;;
39740;SDS011;25426;53.478;10.190;2023-02-28T02:48:39;8.83;;;5.40;;
39740;SDS011;25426;53.478;10.190;2023-02-28T02:51:13;8.90;;;6.30;;
39740;SDS011;25426;53.478;10.190;2023-02-28T02:53:49;8.33;;;6.37;;
39740;SDS011;25426;53.478;10.190;2023-02-28T02:57:00;11.80;;;6.60;;
39740;SDS011;25426;53.478;10.190;2023-02-28T02:59:39;8.90;;;6.00;;
39740;SDS011;25426;53.478;10.190;2023-02-28T03:02:13;10.10;;;6.03;;
39740;SDS011;25426;53.478;10.190;2023-02-28T03:04:48;11.33;;;6.90;;
39740;SDS011;25426;53.478;10.190;2023-02-28T03:07:30;10.60;;;6.27;;
39740;SDS011;25426;53.478;10.190;2023-02-28T03:10:01;11.70;;;6.63;;
39740;SDS011;25426;53.478;10.190;2023-02-28T03:12:34;9.37;;;6.40;;
39740;SDS011;25426;53.478;10.190;2023-02-28T03:15:21;11.00;;;6.60;;
39740;SDS011;25426;53.478;10.190;2023-02-28T03:18:10;8.90;;;6.67;;
39740;SDS011;25426;53.478;10.190;2023-02-28T03:20:58;10.40;;;7.10;;
39740;SDS011;25426;53.478;10.190;2023-02-28T03:27:23;7.17;;;5.83;;
39740;SDS011;25426;53.478;10.190;2023-02-28T03:33:36;9.27;;;5.73;;
39740;SDS011;25426;53.478;10.190;2023-02-28T03:36:13;11.20;;;6.37;;
39740;SDS011;25426;53.478;10.190;2023-02-28T03:38:56;11.47;;;6.30;;
39740;SDS011;25426;53.478;10.190;2023-02-28T03:41:36;8.57;;;5.73;;
39740;SDS011;25426;53.478;10.190;2023-02-28T03:44:32;7.80;;;6.33;;
39740;SDS011;25426;53.478;10.190;2023-02-28T03:47:11;10.03;;;5.80;;
39740;SDS011;25426;53.478;10.190;2023-02-28T03:50:07;11.40;;;7.13;;
39740;SDS011;25426;53.478;10.190;2023-02-28T03:53:01;10.87;;;6.33;;
39740;SDS011;25426;53.478;10.190;2023-02-28T03:55:45;13.27;;;6.73;;
39740;SDS011;25426;53.478;10.190;2023-02-28T03:58:33;9.83;;;6.53;;
39740;SDS011;25426;53.478;10.190;2023-02-28T04:04:17;8.83;;;6.27;;
39740;SDS011;25426;53.478;10.190;2023-02-28T04:06:49;10.17;;;6.27;;
39740;SDS011;25426;53.478;10.190;2023-02-28T04:09:22;11.13;;;6.50;;
39740;SDS011;25426;53.478;10.190;2023-02-28T04:11:53;12.63;;;7.33;;
39740;SDS011;25426;53.478;10.190;2023-02-28T04:14:25;14.07;;;6.73;;
39740;SDS011;25426;53.478;10.190;2023-02-28T04:16:56;13.20;;;6.63;;
39740;SDS011;25426;53.478;10.190;2023-02-28T04:19:27;8.13;;;6.57;;
39740;SDS011;25426;53.478;10.190;2023-02-28T04:21:58;9.30;;;6.77;;
39740;SDS011;25426;53.478;10.190;2023-02-28T04:24:29;11.83;;;6.83;;
39740;SDS011;25426;53.478;10.190;2023-02-28T04:27:00;9.67;;;6.20;;
39740;SDS011;25426;53.478;10.190;2023-02-28T04:29:31;10.67;;;6.83;;
39740;SDS011;25426;53.478;10.190;2023-02-28T04:32:03;11.90;;;7.60;;
39740;SDS011;25426;53.478;10.190;2023-02-28T04:34:34;9.23;;;7.00;;
39740;SDS011;25426;53.478;10.190;2023-02-28T04:37:05;13.70;;;7.33;;
39740;SDS011;25426;53.478;10.190;2023-02-28T04:39:36;9.80;;;7.13;;
39740;SDS011;25426;53.478;10.190;2023-02-28T04:42:08;12.27;;;7.33;;
39740;SDS011;25426;53.478;10.190;2023-02-28T04:44:39;9.50;;;7.27;;
39740;SDS011;25426;53.478;10.190;2023-02-28T04:47:10;15.23;;;7.03;;
39740;SDS011;25426;53.478;10.190;2023-02-28T04:49:41;9.30;;;7.20;;
39740;SDS011;25426;53.478;10.190;2023-02-28T04:52:12;10.20;;;6.33;;
39740;SDS011;25426;53.478;10.190;2023-02-28T04:54:43;8.73;;;6.57;;
39740;SDS011;25426;53.478;10.190;2023-02-28T04:57:14;10.23;;;6.30;;
39740;SDS011;25426;53.478;10.190;2023-02-28T04:59:45;10.37;;;6.60;;
39740;SDS011;25426;53.478;10.190;2023-02-28T05:02:16;9.67;;;7.20;;
39740;SDS011;25426;53.478;10.190;2023-02-28T05:04:47;10.73;;;6.50;;
39740;SDS011;25426;53.478;10.190;2023-02-28T05:07:18;10.57;;;7.37;;
39740;SDS011;25426;53.478;10.190;2023-02-28T05:09:49;14.17;;;7.30;;
39740;SDS011;25426;53.478;10.190;2023-02-28T05:12:20;10.90;;;8.00;;
39740;SDS011;25426;53.478;10.190;2023-02-28T05:14:51;11.80;;;6.73;;
39740;SDS011;25426;53.478;10.190;2023-02-28T05:17:22;10.23;;;6.57;;
39740;SDS011;25426;53.478;10.190;2023-02-28T05:19:53;10.20;;;6.67;;
39740;SDS011;25426;53.478;10.190;2023-02-28T05:22:24;12.93;;;6.83;;
39740;SDS011;25426;53.478;10.190;2023-02-28T05:24:54;10.43;;;7.07;;
39740;SDS011;25426;53.478;10.190;2023-02-28T05:27:26;8.83;;;7.27;;
39740;SDS011;25426;53.478;10.190;2023-02-28T05:29:58;10.67;;;6.53;;
39740;SDS011;25426;53.478;10.190;2023-02-28T05:32:29;11.27;;;7.20;;
39740;SDS011;25426;53.478;10.190;2023-02-28T05:35:00;14.07;;;7.53;;
39740;SDS011;25426;53.478;10.190;2023-02-28T05:37:31;9.53;;;6.83;;
39740;SDS011;25426;53.478;10.190;2023-02-28T05:40:02;9.23;;;7.40;;
39740;SDS011;25426;53.478;10.190;2023-02-28T05:42:38;9.23;;;6.40;;
39740;SDS011;25426;53.478;10.190;2023-02-28T05:45:10;8.13;;;6.13;;
39740;SDS011;25426;53.478;10.190;2023-02-28T05:47:41;9.37;;;6.73;;
39740;SDS011;25426;53.478;10.190;2023-02-28T05:50:11;11.83;;;6.83;;
39740;SDS011;25426;53.478;10.190;2023-02-28T05:52:42;10.10;;;7.33;;
39740;SDS011;25426;53.478;10.190;2023-02-28T05:55:13;8.07;;;6.40;;
39740;SDS011;25426;53.478;10.190;2023-02-28T05:57:44;11.37;;;7.23;;
39740;SDS011;25426;53.478;10.190;2023-02-28T06:00:15;10.23;;;7.20;;
39740;SDS011;25426;53.478;10.190;2023-02-28T06:02:47;10.30;;;7.47;;
39740;SDS011;25426;53.478;10.190;2023-02-28T06:05:19;12.20;;;8.47;;
39740;SDS011;25426;53.478;10.190;2023-02-28T06:07:50;9.97;;;7.27;;
39740;SDS011;25426;53.478;10.190;2023-02-28T06:10:21;12.43;;;7.37;;
39740;SDS011;25426;53.478;10.190;2023-02-28T06:12:52;11.10;;;7.03;;
39740;SDS011;25426;53.478;10.190;2023-02-28T06:15:23;10.33;;;7.27;;
39740;SDS011;25426;53.478;10.190;2023-02-28T06:17:54;12.10;;;7.40;;
39740;SDS011;25426;53.478;10.190;2023-02-28T06:20:26;17.03;;;7.30;;
39740;SDS011;25426;53.478;10.190;2023-02-28T06:23:01;14.57;;;8.37;;
39740;SDS011;25426;53.478;10.190;2023-02-28T06:25:32;14.70;;;7.97;;
39740;SDS011;25426;53.478;10.190;2023-02-28T06:28:03;14.53;;;7.27;;
39740;SDS011;25426;53.478;10.190;2023-02-28T06:30:34;11.00;;;7.23;;
39740;SDS011;25426;53.478;10.190;2023-02-28T06:33:06;9.37;;;7.63;;
39740;SDS011;25426;53.478;10.190;2023-02-28T06:35:37;12.83;;;7.70;;
39740;SDS011;25426;53.478;10.190;2023-02-28T06:38:08;12.67;;;7.80;;
39740;SDS011;25426;53.478;10.190;2023-02-28T06:40:39;10.23;;;7.50;;
39740;SDS011;25426;53.478;10.190;2023-02-28T06:43:10;10.00;;;7.37;;
39740;SDS011;25426;53.478;10.190;2023-02-28T06:45:43;13.97;;;8.30;;
39740;SDS011;25426;53.478;10.190;2023-02-28T06:48:14;10.93;;;7.37;;
39740;SDS011;25426;53.478;10.190;2023-02-28T06:50:45;12.37;;;7.67;;
39740;SDS011;25426;53.478;10.190;2023-02-28T06:53:16;10.90;;;7.87;;
39740;SDS011;25426;53.478;10.190;2023-02-28T06:55:48;12.23;;;8.43;;
39740;SDS011;25426;53.478;10.190;2023-02-28T06:58:18;16.03;;;8.80;;
39740;SDS011;25426;53.478;10.190;2023-02-28T07:00:50;13.67;;;8.13;;
39740;SDS011;25426;53.478;10.190;2023-02-28T07:03:22;11.73;;;8.67;;
39740;SDS011;25426;53.478;10.190;2023-02-28T07:05:53;12.63;;;9.37;;
39740;SDS011;25426;53.478;10.190;2023-02-28T07:08:26;12.17;;;9.47;;
39740;SDS011;25426;53.478;10.190;2023-02-28T07:10:57;15.07;;;10.57;;
39740;SDS011;25426;53.478;10.190;2023-02-28T07:13:28;20.53;;;10.13;;
39740;SDS011;25426;53.478;10.190;2023-02-28T07:16:00;15.50;;;10.53;;
39740;SDS011;25426;53.478;10.190;2023-02-28T07:18:35;14.53;;;10.23;;
39740;SDS011;25426;53.478;10.190;2023-02-28T07:21:08;14.60;;;11.83;;
39740;SDS011;25426;53.478;10.190;2023-02-28T07:23:40;16.33;;;11.70;;
39740;SDS011;25426;53.478;10.190;2023-02-28T07:26:15;14.57;;;12.40;;
39740;SDS011;25426;53.478;10.190;2023-02-28T07:28:49;14.73;;;11.93;;
39740;SDS011;25426;53.478;10.190;2023-02-28T07:31:20;22.40;;;12.07;;
39740;SDS011;25426;53.478;10.190;2023-02-28T07:33:51;16.30;;;12.40;;
39740;SDS011;25426;53.478;10.190;2023-02-28T07:36:24;13.73;;;11.50;;
39740;SDS011;25426;53.478;10.190;2023-02-28T07:38:56;11.83;;;10.53;;
39740;SDS011;25426;53.478;10.190;2023-02-28T07:41:28;14.47;;;10.00;;
39740;SDS011;25426;53.478;10.190;2023-02-28T07:44:00;10.93;;;9.23;;
39740;SDS011;25426;53.478;10.190;2023-02-28T07:46:30;13.23;;;11.03;;
39740;SDS011;25426;53.478;10.190;2023-02-28T07:49:05;13.10;;;9.10;;
39740;SDS011;25426;53.478;10.190;2023-02-28T07:51:36;10.90;;;9.07;;
39740;SDS011;25426;53.478;10.190;2023-02-28T07:54:07;14.90;;;8.50;;
39740;SDS011;25426;53.478;10.190;2023-02-28T07:56:38;10.40;;;8.33;;
39740;SDS011;25426;53.478;10.190;2023-02-28T07:59:09;11.30;;;8.70;;
39740;SDS011;25426;53.478;10.190;2023-02-28T08:01:39;10.30;;;8.27;;
39740;SDS011;25426;53.478;10.190;2023-02-28T08:04:11;14.40;;;9.03;;
39740;SDS011;25426;53.478;10.190;2023-02-28T08:06:41;12.73;;;9.10;;
39740;SDS011;25426;53.478;10.190;2023-02-28T08:09:12;11.20;;;8.77;;
39740;SDS011;25426;53.478;10.190;2023-02-28T08:11:44;10.37;;;8.07;;
39740;SDS011;25426;53.478;10.190;2023-02-28T08:14:15;11.00;;;8.03;;
39740;SDS011;25426;53.478;10.190;2023-02-28T08:16:46;16.13;;;8.47;;
39740;SDS011;25426;53.478;10.190;2023-02-28T08:19:17;13.15;;;8.45;;
39740;SDS011;25426;53.478;10.190;2023-02-28T08:21:48;12.13;;;9.23;;
39740;SDS011;25426;53.478;10.190;2023-02-28T08:24:19;10.43;;;7.87;;
39740;SDS011;25426;53.478;10.190;2023-02-28T08:26:50;13.57;;;8.00;;
39740;SDS011;25426;53.478;10.190;2023-02-28T08:29:20;10.48;;;8.15;;
39740;SDS011;25426;53.478;10.190;2023-02-28T08:31:51;9.23;;;7.88;;
39740;SDS011;25426;53.478;10.190;2023-02-28T08:34:22;8.10;;;7.30;;
39740;SDS011;25426;53.478;10.190;2023-02-28T08:36:53;11.10;;;8.13;;
39740;SDS011;25426;53.478;10.190;2023-02-28T08:39:24;10.93;;;8.43;;
39740;SDS011;25426;53.478;10.190;2023-02-28T08:41:55;9.30;;;7.87;;
39740;SDS011;25426;53.478;10.190;2023-02-28T08:44:26;9.43;;;8.15;;
39740;SDS011;25426;53.478;10.190;2023-02-28T08:46:57;13.38;;;8.05;;
39740;SDS011;25426;53.478;10.190;2023-02-28T08:49:28;8.23;;;7.40;;
39740;SDS011;25426;53.478;10.190;2023-02-28T08:51:59;8.70;;;7.60;;
39740;SDS011;25426;53.478;10.190;2023-02-28T08:54:30;8.25;;;7.13;;
39740;SDS011;25426;53.478;10.190;2023-02-28T08:57:02;8.52;;;7.13;;
39740;SDS011;25426;53.478;10.190;2023-02-28T08:59:33;11.85;;;7.60;;
39740;SDS011;25426;53.478;10.190;2023-02-28T09:02:04;10.20;;;7.20;;
39740;SDS011;25426;53.478;10.190;2023-02-28T09:04:35;10.23;;;6.82;;
39740;SDS011;25426;53.478;10.190;2023-02-28T09:07:06;7.07;;;6.35;;
39740;SDS011;25426;53.478;10.190;2023-02-28T09:09:37;11.13;;;6.85;;
39740;SDS011;25426;53.478;10.190;2023-02-28T09:12:23;8.38;;;7.47;;
39740;SDS011;25426;53.478;10.190;2023-02-28T09:14:56;8.27;;;7.47;;
39740;SDS011;25426;53.478;10.190;2023-02-28T09:17:27;9.85;;;6.70;;
39740;SDS011;25426;53.478;10.190;2023-02-28T09:19:57;10.68;;;7.20;;
39740;SDS011;25426;53.478;10.190;2023-02-28T09:22:28;9.95;;;6.85;;
39740;SDS011;25426;53.478;10.190;2023-02-28T09:24:59;13.70;;;7.25;;
39740;SDS011;25426;53.478;10.190;2023-02-28T09:27:30;10.68;;;6.45;;
39740;SDS011;25426;53.478;10.190;2023-02-28T09:30:01;9.23;;;6.60;;
39740;SDS011;25426;53.478;10.190;2023-02-28T09:32:32;8.07;;;6.32;;
39740;SDS011;25426;53.478;10.190;2023-02-28T09:35:04;9.02;;;6.28;;
39740;SDS011;25426;53.478;10.190;2023-02-28T09:37:35;5.68;;;4.55;;
39740;SDS011;25426;53.478;10.190;2023-02-28T09:40:07;5.97;;;3.63;;
39740;SDS011;25426;53.478;10.190;2023-02-28T09:42:42;8.73;;;4.05;;
39740;SDS011;25426;53.478;10.190;2023-02-28T09:45:19;5.60;;;4.57;;
39740;SDS011;25426;53.478;10.190;2023-02-28T09:48:07;5.97;;;4.28;;
39740;SDS011;25426;53.478;10.190;2023-02-28T09:50:56;5.32;;;2.97;;
39740;SDS011;25426;53.478;10.190;2023-02-28T09:53:38;3.22;;;2.70;;
39740;SDS011;25426;53.478;10.190;2023-02-28T09:56:11;4.40;;;3.47;;
39740;SDS011;25426;53.478;10.190;2023-02-28T10:01:57;5.78;;;3.35;;
39740;SDS011;25426;53.478;10.190;2023-02-28T10:05:18;5.35;;;2.40;;
39740;SDS011;25426;53.478;10.190;2023-02-28T10:10:58;3.08;;;1.88;;
39740;SDS011;25426;53.478;10.190;2023-02-28T10:13:37;2.80;;;2.20;;
39740;SDS011;25426;53.478;10.190;2023-02-28T10:16:52;2.83;;;2.45;;
39740;SDS011;25426;53.478;10.190;2023-02-28T10:19:40;3.88;;;2.15;;
39740;SDS011;25426;53.478;10.190;2023-02-28T10:22:52;2.85;;;1.88;;
39740;SDS011;25426;53.478;10.190;2023-02-28T10:25:37;7.30;;;2.53;;
39740;SDS011;25426;53.478;10.190;2023-02-28T10:28:10;9.55;;;2.33;;
39740;SDS011;25426;53.478;10.190;2023-02-28T10:30:48;3.25;;;1.77;;
39740;SDS011;25426;53.478;10.190;2023-02-28T10:33:23;2.15;;;1.70;;
39740;SDS011;25426;53.478;10.190;2023-02-28T10:36:00;3.05;;;2.05;;
39740;SDS011;25426;53.478;10.190;2023-02-28T10:38:34;4.93;;;1.55;;
39740;SDS011;25426;53.478;10.190;2023-02-28T10:41:09;1.85;;;1.50;;
39740;SDS011;25426;53.478;10.190;2023-02-28T10:44:12;5.05;;;2.20;;
39740;SDS011;25426;53.478;10.190;2023-02-28T10:46:52;2.22;;;1.55;;
39740;SDS011;25426;53.478;10.190;2023-02-28T10:49:24;2.35;;;1.63;;
39740;SDS011;25426;53.478;10.190;2023-02-28T10:52:00;3.75;;;3.38;;
39740;SDS011;25426;53.478;10.190;2023-02-28T10:54:35;2.20;;;2.00;;
39740;SDS011;25426;53.478;10.190;2023-02-28T10:57:09;1.48;;;1.33;;
39740;SDS011;25426;53.478;10.190;2023-02-28T11:00:05;2.85;;;1.70;;
39740;SDS011;25426;53.478;10.190;2023-02-28T11:02:51;1.92;;;1.40;;
39740;SDS011;25426;53.478;10.190;2023-02-28T11:07:56;6.15;;;1.90;;
39740;SDS011;25426;53.478;10.190;2023-02-28T11:10:59;3.08;;;1.50;;
39740;SDS011;25426;53.478;10.190;2023-02-28T11:13:35;3.88;;;2.65;;
39740;SDS011;25426;53.478;10.190;2023-02-28T11:16:10;3.88;;;2.40;;
39740;SDS011;25426;53.478;10.190;2023-02-28T11:18:46;3.20;;;2.40;;
39740;SDS011;25426;53.478;10.190;2023-02-28T11:21:25;2.50;;;1.95;;
39740;SDS011;25426;53.478;10.190;2023-02-28T11:24:16;3.30;;;2.08;;
39740;SDS011;25426;53.478;10.190;2023-02-28T11:27:24;5.13;;;4.57;;
39740;SDS011;25426;53.478;10.190;2023-02-28T11:30:01;7.47;;;3.58;;
39740;SDS011;25426;53.478;10.190;2023-02-28T11:32:32;2.70;;;2.00;;
39740;SDS011;25426;53.478;10.190;2023-02-28T11:37:40;2.97;;;2.28;;
39740;SDS011;25426;53.478;10.190;2023-02-28T11:40:18;2.13;;;1.90;;
39740;SDS011;25426;53.478;10.190;2023-02-28T11:52:02;2.95;;;2.22;;
39740;SDS011;25426;53.478;10.190;2023-02-28T11:58:21;3.15;;;1.80;;
39740;SDS011;25426;53.478;10.190;2023-02-28T12:01:31;3.85;;;2.60;;
39740;SDS011;25426;53.478;10.190;2023-02-28T12:14:32;5.28;;;2.35;;
39740;SDS011;25426;53.478;10.190;2023-02-28T12:20:33;9.30;;;2.22;;
39740;SDS011;25426;53.478;10.190;2023-02-28T12:26:45;3.30;;;3.00;;
39740;SDS011;25426;53.478;10.190;2023-02-28T12:29:23;5.03;;;2.72;;
39740;SDS011;25426;53.478;10.190;2023-02-28T12:32:03;2.72;;;2.05;;
39740;SDS011;25426;53.478;10.190;2023-02-28T12:34:45;6.68;;;3.40;;
39740;SDS011;25426;53.478;10.190;2023-02-28T12:37:27;4.32;;;2.47;;
39740;SDS011;25426;53.478;10.190;2023-02-28T12:40:21;3.08;;;2.20;;
39740;SDS011;25426;53.478;10.190;2023-02-28T12:42:58;1.85;;;1.73;;
39740;SDS011;25426;53.478;10.190;2023-02-28T12:45:39;5.45;;;2.63;;
39740;SDS011;25426;53.478;10.190;2023-02-28T12:48:16;4.38;;;2.40;;
39740;SDS011;25426;53.478;10.190;2023-02-28T12:50:57;2.88;;;2.58;;
39740;SDS011;25426;53.478;10.190;2023-02-28T12:53:31;1.90;;;1.67;;
39740;SDS011;25426;53.478;10.190;2023-02-28T12:56:32;4.28;;;3.22;;
39740;SDS011;25426;53.478;10.190;2023-02-28T12:59:23;3.55;;;2.20;;
39740;SDS011;25426;53.478;10.190;2023-02-28T13:08:46;2.50;;;2.17;;
39740;SDS011;25426;53.478;10.190;2023-02-28T13:11:39;3.45;;;2.33;;
39740;SDS011;25426;53.478;10.190;2023-02-28T13:17:03;3.85;;;2.80;;
39740;SDS011;25426;53.478;10.190;2023-02-28T13:24:56;3.85;;;2.80;;
39740;SDS011;25426;53.478;10.190;2023-02-28T13:27:37;3.78;;;2.17;;
39740;SDS011;25426;53.478;10.190;2023-02-28T13:33:36;3.97;;;2.40;;
39740;SDS011;25426;53.478;10.190;2023-02-28T13:36:27;3.10;;;2.30;;
39740;SDS011;25426;53.478;10.190;2023-02-28T13:39:11;3.33;;;2.13;;
39740;SDS011;25426;53.478;10.190;2023-02-28T13:47:41;7.43;;;3.55;;
39740;SDS011;25426;53.478;10.190;2023-02-28T13:50:37;4.40;;;3.30;;
39740;SDS011;25426;53.478;10.190;2023-02-28T13:55:56;5.28;;;2.83;;
39740;SDS011;25426;53.478;10.190;2023-02-28T13:58:59;11.95;;;4.93;;
39740;SDS011;25426;53.478;10.190;2023-02-28T14:01:49;5.20;;;2.55;;
39740;SDS011;25426;53.478;10.190;2023-02-28T14:04:49;5.10;;;2.45;;
39740;SDS011;25426;53.478;10.190;2023-02-28T14:07:46;4.30;;;2.63;;
39740;SDS011;25426;53.478;10.190;2023-02-28T14:10:22;3.28;;;2.30;;
39740;SDS011;25426;53.478;10.190;2023-02-28T14:13:13;3.50;;;2.63;;
39740;SDS011;25426;53.478;10.190;2023-02-28T14:16:08;3.33;;;2.42;;
39740;SDS011;25426;53.478;10.190;2023-02-28T14:18:41;2.72;;;2.15;;
39740;SDS011;25426;53.478;10.190;2023-02-28T14:21:32;3.50;;;2.22;;
39740;SDS011;25426;53.478;10.190;2023-02-28T14:24:22;3.28;;;2.40;;
39740;SDS011;25426;53.478;10.190;2023-02-28T14:27:17;4.53;;;3.63;;
39740;SDS011;25426;53.478;10.190;2023-02-28T14:30:30;4.38;;;2.33;;
39740;SDS011;25426;53.478;10.190;2023-02-28T14:33:23;3.38;;;2.50;;
39740;SDS011;25426;53.478;10.190;2023-02-28T14:36:33;3.08;;;2.55;;
39740;SDS011;25426;53.478;10.190;2023-02-28T14:39:10;4.03;;;2.22;;
39740;SDS011;25426;53.478;10.190;2023-02-28T14:41:54;2.65;;;2.30;;
39740;SDS011;25426;53.478;10.190;2023-02-28T14:44:26;3.50;;;2.40;;
39740;SDS011;25426;53.478;10.190;2023-02-28T14:46:59;3.13;;;2.35;;
39740;SDS011;25426;53.478;10.190;2023-02-28T14:49:41;4.50;;;2.90;;
39740;SDS011;25426;53.478;10.190;2023-02-28T14:52:17;3.08;;;2.17;;
39740;SDS011;25426;53.478;10.190;2023-02-28T14:55:05;3.08;;;2.10;;
39740;SDS011;25426;53.478;10.190;2023-02-28T14:58:01;3.08;;;2.13;;
39740;SDS011;25426;53.478;10.190;2023-02-28T15:00:40;2.95;;;2.13;;
39740;SDS011;25426;53.478;10.190;2023-02-28T15:03:31;6.18;;;3.38;;
39740;SDS011;25426;53.478;10.190;2023-02-28T15:06:15;4.30;;;2.60;;
39740;SDS011;25426;53.478;10.190;2023-02-28T15:09:02;3.08;;;2.47;;
39740;SDS011;25426;53.478;10.190;2023-02-28T15:11:48;3.72;;;2.30;;
39740;SDS011;25426;53.478;10.190;2023-02-28T15:14:20;3.20;;;2.60;;
39740;SDS011;25426;53.478;10.190;2023-02-28T15:16:56;3.83;;;2.75;;
39740;SDS011;25426;53.478;10.190;2023-02-28T15:19:34;3.47;;;2.40;;
39740;SDS011;25426;53.478;10.190;2023-02-28T15:22:15;5.53;;;2.42;;
39740;SDS011;25426;53.478;10.190;2023-02-28T15:24:51;5.53;;;2.72;;
39740;SDS011;25426;53.478;10.190;2023-02-28T15:27:27;3.25;;;2.40;;
39740;SDS011;25426;53.478;10.190;2023-02-28T15:30:06;7.82;;;2.25;;
39740;SDS011;25426;53.478;10.190;2023-02-28T15:33:03;5.90;;;2.65;;
39740;SDS011;25426;53.478;10.190;2023-02-28T15:35:50;3.92;;;2.22;;
39740;SDS011;25426;53.478;10.190;2023-02-28T15:38:25;3.47;;;2.35;;
39740;SDS011;25426;53.478;10.190;2023-02-28T15:40:58;4.03;;;2.50;;
39740;SDS011;25426;53.478;10.190;2023-02-28T15:43:29;6.00;;;3.03;;
39740;SDS011;25426;53.478;10.190;2023-02-28T15:46:10;3.33;;;2.97;;
39740;SDS011;25426;53.478;10.190;2023-02-28T15:48:43;3.65;;;2.88;;
39740;SDS011;25426;53.478;10.190;2023-02-28T15:51:24;5.07;;;3.20;;
39740;SDS011;25426;53.478;10.190;2023-02-28T15:54:07;3.00;;;2.70;;
39740;SDS011;25426;53.478;10.190;2023-02-28T15:56:50;3.38;;;2.50;;
39740;SDS011;25426;53.478;10.190;2023-02-28T15:59:27;4.25;;;3.13;;
39740;SDS011;25426;53.478;10.190;2023-02-28T16:04:56;4.28;;;3.03;;
39740;SDS011;25426;53.478;10.190;2023-02-28T16:07:38;7.07;;;3.15;;
39740;SDS011;25426;53.478;10.190;2023-02-28T16:10:13;3.08;;;2.58;;
39740;SDS011;25426;53.478;10.190;2023-02-28T16:12:45;4.75;;;2.90;;
39740;SDS011;25426;53.478;10.190;2023-02-28T16:15:20;3.75;;;2.78;;
39740;SDS011;25426;53.478;10.190;2023-02-28T16:17:58;3.20;;;2.67;;
39740;SDS011;25426;53.478;10.190;2023-02-28T16:20:30;3.92;;;3.22;;
39740;SDS011;25426;53.478;10.190;2023-02-28T16:23:01;4.20;;;2.88;;
39740;SDS011;25426;53.478;10.190;2023-02-28T16:25:34;5.35;;;2.83;;
39740;SDS011;25426;53.478;10.190;2023-02-28T16:31:02;4.32;;;3.33;;
39740;SDS011;25426;53.478;10.190;2023-02-28T16:33:37;4.97;;;3.13;;
39740;SDS011;25426;53.478;10.190;2023-02-28T16:36:10;5.63;;;3.50;;
39740;SDS011;25426;53.478;10.190;2023-02-28T16:38:49;3.70;;;3.35;;
39740;SDS011;25426;53.478;10.190;2023-02-28T16:41:21;5.07;;;3.70;;
39740;SDS011;25426;53.478;10.190;2023-02-28T16:43:56;4.25;;;2.95;;
39740;SDS011;25426;53.478;10.190;2023-02-28T16:46:30;4.95;;;3.58;;
39740;SDS011;25426;53.478;10.190;2023-02-28T16:49:04;6.05;;;4.05;;
39740;SDS011;25426;53.478;10.190;2023-02-28T16:51:40;3.95;;;3.53;;
39740;SDS011;25426;53.478;10.190;2023-02-28T16:54:11;5.20;;;3.55;;
39740;SDS011;25426;53.478;10.190;2023-02-28T16:56:44;3.85;;;3.33;;
39740;SDS011;25426;53.478;10.190;2023-02-28T16:59:18;4.53;;;3.67;;
39740;SDS011;25426;53.478;10.190;2023-02-28T17:01:54;5.95;;;3.75;;
39740;SDS011;25426;53.478;10.190;2023-02-28T17:04:27;5.63;;;3.65;;
39740;SDS011;25426;53.478;10.190;2023-02-28T17:07:01;6.20;;;4.03;;
39740;SDS011;25426;53.478;10.190;2023-02-28T17:09:32;7.83;;;4.80;;